Sevastopol, Wisconsin
Current Conditions -  °F | °C
As of 12:35 AM on Wednesday 28 Jan 2015 (Local Time) from KSUE Reporting Station
Broken Clouds Broken Clouds  
Wind Chill: 18°   Ceiling: 2400
Heat Index: 18°   Visibility: 10mi
Dew Point: 14°   Wind: 3mph
Humidity: 86%   Direction: 270°W
Pressure: 30.27"   Gusts: NA
Location:  44.7888°N, 87.4464°W
Report Text: KSUE 280635Z AUTO 27003KT 10SM BKN024 M08/M10 A3027 RMK AO1
Loading
Personal Weather Stations






























Interactive Weather Map New forecast layout! Learn more

10-Day Weather Forecast

Advertisements
Track Severe Weather on mobile